Time;durP1;ratioP1;P1;durP2;ratioP2;P2;SDS_P1;SDS_P2;PMS_P1;PMS_P2;Temp;Humidity;BMP_temperature;BMP_pressure;BME280_temperature;BME280_humidity;BME280_pressure;Samples;Min_cycle;Max_cycle;Signal;HPM_P1;HPM_P2
2021/07/29 00:00:32;;;;;;;9.85;2.30;;;17.40;99.90;;;;;;5021025;28;20029;-86
2021/07/29 00:03:02;;;;;;;3.53;2.00;;;17.40;99.90;;;;;;5022521;28;20101;-87
2021/07/29 00:05:30;;;;;;;3.67;2.38;;;17.40;99.90;;;;;;5018151;28;20022;-87
2021/07/29 00:07:56;;;;;;;6.03;2.60;;;17.40;99.90;;;;;;5034729;28;20100;-87
2021/07/29 00:10:23;;;;;;;5.72;2.65;;;17.70;99.90;;;;;;5016385;28;20112;-87
2021/07/29 00:12:49;;;;;;;3.83;2.17;;;17.90;99.90;;;;;;5016249;28;20031;-87
2021/07/29 00:15:16;;;;;;;7.75;2.10;;;17.90;99.90;;;;;;5016135;28;20057;-87
2021/07/29 00:20:17;;;;;;;2.65;2.05;;;18.00;99.90;;;;;;5034165;28;20116;-87
2021/07/29 00:22:44;;;;;;;5.90;2.00;;;18.20;99.90;;;;;;5016053;28;20033;-87
2021/07/29 00:25:13;;;;;;;4.72;1.90;;;18.10;99.90;;;;;;5015969;28;20491;-87
2021/07/29 00:27:43;;;;;;;4.53;1.80;;;17.80;99.90;;;;;;5016003;28;20409;-87
2021/07/29 00:30:10;;;;;;;4.13;2.05;;;17.80;99.90;;;;;;5016172;28;20385;-86
2021/07/29 00:32:36;;;;;;;3.67;1.85;;;17.90;99.90;;;;;;5016257;28;20109;-86
2021/07/29 00:35:04;;;;;;;3.47;2.10;;;17.80;99.90;;;;;;5016008;28;20026;-87
2021/07/29 00:37:30;;;;;;;3.58;2.38;;;18.00;99.90;;;;;;5016292;28;20369;-87
2021/07/29 00:39:56;;;;;;;6.35;2.15;;;18.10;99.90;;;;;;5032904;28;20132;-87
2021/07/29 00:42:22;;;;;;;7.82;2.33;;;18.10;99.90;;;;;;5035508;28;20080;-87
2021/07/29 00:44:48;;;;;;;6.93;2.45;;;17.90;99.90;;;;;;5035407;28;20120;-87
2021/07/29 00:47:18;;;;;;;4.28;2.40;;;17.90;99.90;;;;;;5035581;28;20125;-87
2021/07/29 00:49:45;;;;;;;6.05;2.22;;;18.10;99.90;;;;;;5035562;28;20416;-87
2021/07/29 00:52:13;;;;;;;7.28;2.10;;;17.90;99.90;;;;;;5035410;28;20025;-87
2021/07/29 00:54:40;;;;;;;4.28;2.17;;;17.90;99.90;;;;;;5035432;28;20491;-87
2021/07/29 00:57:07;;;;;;;5.97;1.90;;;18.00;99.90;;;;;;5035372;28;20025;-87
2021/07/29 00:59:33;;;;;;;4.50;2.00;;;18.00;99.90;;;;;;5035018;28;20025;-87
2021/07/29 01:01:59;;;;;;;7.45;2.30;;;17.80;99.90;;;;;;5053179;28;20381;-87
2021/07/29 01:04:25;;;;;;;14.10;2.25;;;17.50;99.90;;;;;;5035224;28;20028;-87
2021/07/29 01:06:50;;;;;;;5.88;2.17;;;17.20;99.90;;;;;;5035204;28;20025;-88
2021/07/29 01:09:16;;;;;;;3.25;1.90;;;17.00;99.90;;;;;;5035322;28;20024;-87
2021/07/29 01:11:43;;;;;;;10.48;2.30;;;16.70;99.90;;;;;;5035232;28;20021;-87
2021/07/29 01:14:10;;;;;;;3.40;2.10;;;16.60;99.90;;;;;;5035169;28;20078;-87
2021/07/29 01:16:36;;;;;;;5.70;2.30;;;16.70;99.90;;;;;;5035131;28;20032;-87
2021/07/29 01:19:03;;;;;;;7.18;2.25;;;16.60;99.90;;;;;;5035060;28;20025;-87
2021/07/29 01:21:30;;;;;;;6.15;1.90;;;16.60;99.90;;;;;;5035077;28;20112;-87
2021/07/29 01:23:56;;;;;;;12.48;2.15;;;16.60;99.90;;;;;;5035000;28;20017;-87
2021/07/29 01:26:22;;;;;;;6.13;2.10;;;16.60;99.90;;;;;;5034985;28;20032;-87
2021/07/29 01:28:48;;;;;;;7.30;2.13;;;16.50;99.90;;;;;;5034922;28;20473;-87
2021/07/29 01:31:13;;;;;;;6.15;2.47;;;16.70;99.90;;;;;;5034948;28;20389;-87
2021/07/29 01:33:40;;;;;;;6.10;2.30;;;16.50;99.90;;;;;;5052779;28;20048;-87
2021/07/29 01:36:06;;;;;;;7.03;2.38;;;16.60;99.90;;;;;;5034962;28;20071;-87
2021/07/29 01:38:32;;;;;;;6.20;2.22;;;16.70;99.90;;;;;;5034857;28;20452;-87
2021/07/29 01:40:58;;;;;;;2.97;1.90;;;16.80;99.90;;;;;;5034994;28;20033;-87
2021/07/29 01:43:24;;;;;;;8.40;2.17;;;16.70;99.90;;;;;;5034951;28;20033;-87
2021/07/29 01:45:50;;;;;;;5.50;1.92;;;16.70;99.90;;;;;;5034785;28;20120;-87
2021/07/29 01:48:16;;;;;;;5.60;2.10;;;16.70;99.90;;;;;;5034922;28;20110;-87
2021/07/29 01:50:44;;;;;;;5.38;2.13;;;17.00;99.90;;;;;;5034834;28;20559;-87
2021/07/29 01:53:10;;;;;;;8.27;2.30;;;17.00;99.90;;;;;;5034764;28;20021;-87
2021/07/29 01:55:43;;;;;;;11.70;2.15;;;16.50;99.90;;;;;;5034755;28;20036;-87
2021/07/29 01:58:09;;;;;;;4.30;1.85;;;16.50;99.90;;;;;;5034688;28;20033;-87
2021/07/29 02:00:35;;;;;;;5.60;2.10;;;16.60;99.90;;;;;;5034747;28;20055;-87
2021/07/29 02:03:02;;;;;;;8.35;2.00;;;17.00;99.90;;;;;;5034628;28;20032;-87
2021/07/29 02:05:32;;;;;;;3.38;1.90;;;17.00;99.90;;;;;;5052442;28;20025;-87
2021/07/29 02:07:58;;;;;;;5.22;2.50;;;16.80;99.90;;;;;;5034704;28;20159;-87
2021/07/29 02:10:23;;;;;;;5.13;2.17;;;16.80;99.90;;;;;;5056771;28;20022;-87
2021/07/29 02:12:50;;;;;;;2.95;1.80;;;16.60;99.90;;;;;;5047664;28;20025;-87
2021/07/29 02:15:16;;;;;;;6.53;1.98;;;16.50;99.90;;;;;;5042716;28;20503;-87
2021/07/29 02:17:42;;;;;;;5.32;2.10;;;16.40;99.90;;;;;;5038787;28;20040;-87
2021/07/29 02:20:08;;;;;;;4.93;1.80;;;16.40;99.90;;;;;;5038431;28;20488;-87
2021/07/29 02:22:34;;;;;;;10.05;2.70;;;16.30;99.90;;;;;;5037989;28;20083;-86
2021/07/29 02:25:00;;;;;;;13.02;2.35;;;16.30;99.90;;;;;;5037947;28;20029;-87
2021/07/29 02:27:25;;;;;;;5.88;2.08;;;16.30;99.90;;;;;;5038014;28;20059;-88
2021/07/29 02:29:52;;;;;;;7.47;2.08;;;16.50;99.90;;;;;;5037966;28;20025;-88
2021/07/29 02:32:18;;;;;;;7.85;2.17;;;16.50;99.90;;;;;;5037925;28;20029;-88
2021/07/29 02:34:43;;;;;;;3.22;1.67;;;16.40;99.90;;;;;;5056301;28;20025;-88
2021/07/29 02:37:09;;;;;;;8.68;2.05;;;16.40;99.90;;;;;;5037713;28;20083;-88
2021/07/29 02:39:36;;;;;;;3.95;1.63;;;16.40;99.90;;;;;;5037607;28;20549;-88
2021/07/29 02:42:02;;;;;;;5.85;2.38;;;16.20;99.90;;;;;;5055842;28;20124;-87
2021/07/29 02:44:28;;;;;;;5.68;2.55;;;16.10;99.90;;;;;;5037508;28;20036;-87
2021/07/29 02:46:54;;;;;;;7.68;2.03;;;16.00;99.90;;;;;;5055497;28;20017;-87
2021/07/29 02:49:20;;;;;;;3.42;2.15;;;16.10;99.90;;;;;;5037410;28;20075;-87
2021/07/29 02:51:45;;;;;;;11.32;2.47;;;16.30;99.90;;;;;;5037463;28;20021;-87
2021/07/29 02:54:11;;;;;;;8.73;2.20;;;16.30;99.90;;;;;;5037390;28;20021;-87
2021/07/29 02:56:37;;;;;;;10.15;2.40;;;16.40;99.90;;;;;;5037430;28;20017;-87
2021/07/29 02:59:02;;;;;;;5.13;2.30;;;16.10;99.90;;;;;;5037461;28;20540;-87
2021/07/29 03:01:28;;;;;;;7.35;2.40;;;16.20;99.90;;;;;;5037732;28;20025;-87
2021/07/29 03:03:54;;;;;;;8.63;2.03;;;15.90;99.90;;;;;;5037387;28;20416;-87
2021/07/29 03:06:20;;;;;;;4.32;1.90;;;15.80;99.90;;;;;;5037299;28;20032;-87
2021/07/29 03:08:46;;;;;;;7.47;2.08;;;16.00;99.90;;;;;;5037171;28;20381;-87
2021/07/29 03:11:11;;;;;;;7.43;1.88;;;16.70;99.90;;;;;;5037267;28;20028;-87
2021/07/29 03:13:37;;;;;;;12.90;2.40;;;16.80;99.90;;;;;;5037482;28;20104;-87
2021/07/29 03:16:04;;;;;;;5.10;1.90;;;16.50;99.90;;;;;;5037295;28;20120;-87
2021/07/29 03:18:30;;;;;;;5.10;2.10;;;16.50;99.90;;;;;;5036993;28;20025;-87
2021/07/29 03:20:55;;;;;;;6.95;1.98;;;16.70;99.90;;;;;;5054548;28;20075;-87
2021/07/29 03:23:22;;;;;;;6.60;2.13;;;16.70;99.90;;;;;;5036778;28;20033;-87
2021/07/29 03:25:52;;;;;;;10.05;2.50;;;16.50;99.90;;;;;;5036741;28;20021;-87
2021/07/29 03:28:19;;;;;;;4.63;2.25;;;16.20;99.90;;;;;;5054712;28;20032;-86
2021/07/29 03:30:45;;;;;;;11.05;2.40;;;16.10;99.90;;;;;;5036790;28;20385;-87
2021/07/29 03:33:11;;;;;;;8.98;2.22;;;16.00;99.90;;;;;;5036883;28;20079;-87
2021/07/29 03:35:38;;;;;;;5.32;2.35;;;16.10;99.90;;;;;;5036699;28;20029;-87
2021/07/29 03:38:05;;;;;;;11.93;2.33;;;16.20;99.90;;;;;;5034345;28;20032;-86
2021/07/29 03:40:32;;;;;;;5.10;2.15;;;16.10;99.90;;;;;;5016809;28;20037;-87
2021/07/29 03:43:01;;;;;;;9.65;2.53;;;16.10;99.90;;;;;;5034449;28;20155;-87
2021/07/29 03:45:31;;;;;;;6.18;2.20;;;16.10;99.90;;;;;;5017472;28;20030;-87
2021/07/29 03:47:58;;;;;;;5.45;2.00;;;15.90;99.90;;;;;;5016685;28;20025;-87
2021/07/29 03:50:24;;;;;;;9.43;2.22;;;16.00;99.90;;;;;;5016573;28;20049;-88
2021/07/29 03:52:50;;;;;;;5.40;1.98;;;15.90;99.90;;;;;;5016530;28;20028;-87
2021/07/29 03:55:16;;;;;;;7.05;1.88;;;16.00;99.90;;;;;;5016495;28;20109;-87
2021/07/29 03:57:42;;;;;;;7.75;2.00;;;16.00;99.90;;;;;;5034223;28;20426;-87
2021/07/29 04:00:09;;;;;;;7.55;2.47;;;16.00;99.90;;;;;;5034161;28;20022;-87
2021/07/29 04:02:34;;;;;;;8.00;2.30;;;15.90;99.90;;;;;;5016959;28;20026;-87
2021/07/29 04:05:01;;;;;;;7.97;2.20;;;15.70;99.90;;;;;;5016220;28;20032;-87
2021/07/29 04:07:27;;;;;;;6.80;2.63;;;15.60;99.90;;;;;;5016278;28;20489;-87
2021/07/29 04:09:53;;;;;;;6.35;2.08;;;15.60;99.90;;;;;;5016288;28;20018;-87
2021/07/29 04:12:19;;;;;;;11.27;2.55;;;15.70;99.90;;;;;;5016265;28;20041;-87
2021/07/29 04:14:45;;;;;;;4.47;2.20;;;15.50;99.90;;;;;;5033871;28;20080;-88
2021/07/29 04:17:10;;;;;;;9.98;2.53;;;15.50;99.90;;;;;;5033887;28;20029;-88
2021/07/29 04:19:37;;;;;;;17.58;2.70;;;15.70;99.90;;;;;;5017345;28;20026;-87
2021/07/29 04:22:06;;;;;;;7.72;2.17;;;15.60;99.90;;;;;;5027444;28;20042;-87
2021/07/29 04:24:32;;;;;;;4.55;2.33;;;15.70;99.90;;;;;;5026248;28;20503;-88
2021/07/29 04:26:59;;;;;;;9.48;2.47;;;15.70;99.90;;;;;;5018622;28;20017;-89
2021/07/29 04:29:27;;;;;;;10.75;2.15;;;15.80;99.90;;;;;;5017979;28;20021;-88
2021/07/29 04:31:53;;;;;;;5.65;2.33;;;15.70;99.90;;;;;;5018094;28;20083;-88
2021/07/29 04:34:19;;;;;;;8.63;2.38;;;15.70;99.90;;;;;;5035400;28;20056;-88
2021/07/29 04:36:46;;;;;;;9.95;2.30;;;15.80;99.90;;;;;;5017807;28;20121;-89
2021/07/29 04:39:12;;;;;;;8.43;2.33;;;15.90;99.90;;;;;;5035656;28;20440;-88
2021/07/29 04:41:42;;;;;;;3.13;2.08;;;15.80;99.90;;;;;;5036270;28;20366;-88
2021/07/29 04:44:09;;;;;;;4.90;2.20;;;15.80;99.90;;;;;;5018325;28;20021;-88
2021/07/29 04:46:35;;;;;;;7.15;2.55;;;16.00;99.90;;;;;;5017712;28;20542;-87
2021/07/29 04:49:03;;;;;;;11.82;2.25;;;16.20;99.90;;;;;;5017244;28;20052;-88
2021/07/29 04:51:28;;;;;;;7.05;2.80;;;16.30;99.90;;;;;;5018452;28;20025;-88
2021/07/29 04:53:54;;;;;;;10.85;2.65;;;16.30;99.90;;;;;;5035978;28;20105;-88
2021/07/29 04:56:19;;;;;;;5.95;2.42;;;16.40;99.90;;;;;;5019005;28;20031;-88
2021/07/29 04:58:47;;;;;;;6.22;2.45;;;16.40;99.90;;;;;;5018607;28;20056;-88
2021/07/29 05:01:13;;;;;;;6.38;2.55;;;16.30;99.90;;;;;;5036927;28;20025;-88
2021/07/29 05:03:39;;;;;;;4.82;2.78;;;16.30;99.90;;;;;;5017616;28;20440;-87
2021/07/29 05:06:04;;;;;;;5.22;2.42;;;16.30;99.90;;;;;;5017169;28;20021;-87
2021/07/29 05:08:30;;;;;;;6.00;2.63;;;16.50;99.90;;;;;;5017317;28;20030;-87
2021/07/29 05:10:56;;;;;;;11.27;2.70;;;16.60;99.90;;;;;;5017053;28;20028;-87
2021/07/29 05:13:22;;;;;;;8.30;2.45;;;16.70;99.90;;;;;;5017038;28;20022;-87
2021/07/29 05:15:48;;;;;;;11.73;2.53;;;16.90;99.90;;;;;;5017058;28;20033;-87
2021/07/29 05:18:13;;;;;;;5.18;2.60;;;17.00;99.90;;;;;;5034821;28;20025;-87
2021/07/29 05:20:39;;;;;;;8.50;2.83;;;16.80;99.90;;;;;;5016778;28;20042;-87
2021/07/29 05:23:05;;;;;;;11.50;2.70;;;16.90;99.90;;;;;;5035092;28;20101;-87
2021/07/29 05:25:32;;;;;;;7.03;2.95;;;17.00;99.90;;;;;;5016561;28;20441;-87
2021/07/29 05:27:57;;;;;;;5.35;2.53;;;17.00;99.90;;;;;;5016895;28;20037;-87
2021/07/29 05:30:23;;;;;;;8.23;2.60;;;17.20;99.90;;;;;;5016781;28;20022;-87
2021/07/29 05:32:48;;;;;;;7.38;2.40;;;17.50;99.90;;;;;;5034225;28;20030;-88
2021/07/29 05:35:14;;;;;;;4.72;2.40;;;17.50;99.90;;;;;;5016733;28;20500;-87
2021/07/29 05:37:40;;;;;;;6.90;2.20;;;17.70;99.90;;;;;;5016552;28;20370;-87
2021/07/29 05:40:07;;;;;;;3.88;1.95;;;18.00;99.90;;;;;;5034245;28;20045;-87
2021/07/29 05:42:33;;;;;;;6.90;2.60;;;18.00;99.90;;;;;;5016435;28;20047;-87
2021/07/29 05:45:00;;;;;;;5.53;2.38;;;17.90;99.90;;;;;;5018465;28;20072;-87
2021/07/29 05:47:25;;;;;;;9.48;3.20;;;17.80;99.90;;;;;;5020811;28;20053;-87
2021/07/29 05:49:51;;;;;;;6.97;3.25;;;17.80;99.90;;;;;;5020975;28;20079;-86
2021/07/29 05:52:17;;;;;;;4.10;2.40;;;17.80;99.90;;;;;;5020806;28;20040;-87
2021/07/29 05:54:43;;;;;;;6.65;2.42;;;17.90;99.90;;;;;;5020300;28;20021;-87
2021/07/29 05:57:08;;;;;;;4.22;2.42;;;17.90;99.90;;;;;;5020171;28;20021;-87
2021/07/29 05:59:34;;;;;;;3.38;2.40;;;17.80;99.90;;;;;;5020394;28;20053;-87
2021/07/29 06:02:00;;;;;;;5.90;2.40;;;17.80;99.90;;;;;;5038179;28;20385;-87
2021/07/29 06:04:26;;;;;;;7.47;2.15;;;17.80;99.90;;;;;;5020397;28;20033;-87
2021/07/29 06:06:51;;;;;;;4.90;2.63;;;18.00;99.90;;;;;;5020654;28;20028;-87
2021/07/29 06:09:17;;;;;;;5.05;2.22;;;18.00;99.90;;;;;;5037695;28;20030;-87
2021/07/29 06:11:43;;;;;;;6.10;2.20;;;18.20;99.90;;;;;;5038128;28;20377;-87
2021/07/29 06:14:09;;;;;;;5.38;2.25;;;18.20;99.90;;;;;;5020075;28;20029;-87
2021/07/29 06:16:34;;;;;;;6.75;2.45;;;18.10;99.90;;;;;;5020051;28;20041;-87
2021/07/29 06:19:15;;;;;;;6.20;2.50;;;18.00;99.90;;;;;;5037898;28;20021;-87
2021/07/29 06:21:40;;;;;;;5.95;2.53;;;18.00;99.90;;;;;;5020177;28;20030;-87
2021/07/29 06:24:06;;;;;;;6.82;2.67;;;18.10;99.90;;;;;;5020175;28;20038;-86
2021/07/29 06:26:33;;;;;;;7.28;2.40;;;18.10;99.90;;;;;;5020052;28;20052;-87
2021/07/29 06:28:59;;;;;;;6.97;2.42;;;18.00;99.90;;;;;;5020552;28;20029;-87
2021/07/29 06:31:25;;;;;;;6.03;2.50;;;17.90;99.90;;;;;;5024047;28;20026;-87
2021/07/29 06:33:50;;;;;;;6.00;2.83;;;18.00;99.90;;;;;;5029029;28;20025;-87
2021/07/29 06:36:16;;;;;;;6.07;2.28;;;17.90;99.90;;;;;;5026996;28;20028;-86
2021/07/29 06:38:42;;;;;;;3.67;2.10;;;17.90;99.90;;;;;;5015052;28;20488;-86
2021/07/29 06:41:08;;;;;;;2.72;2.22;;;18.00;99.90;;;;;;5044501;28;20029;-86
2021/07/29 06:43:34;;;;;;;3.92;2.88;;;18.10;99.90;;;;;;5043541;28;20443;-86
2021/07/29 06:46:07;;;;;;;6.53;2.30;;;18.20;99.90;;;;;;5061900;28;20029;-87
2021/07/29 06:48:34;;;;;;;4.90;2.10;;;18.10;99.90;;;;;;5043700;28;20089;-86
2021/07/29 06:51:04;;;;;;;2.55;1.92;;;18.20;99.90;;;;;;5043025;28;20071;-86
2021/07/29 06:53:31;;;;;;;4.35;2.30;;;18.20;99.90;;;;;;5042721;28;20017;-86
2021/07/29 06:56:01;;;;;;;4.45;2.33;;;18.40;99.90;;;;;;5041593;28;20048;-86
2021/07/29 06:58:27;;;;;;;3.97;2.25;;;18.50;99.90;;;;;;5038951;28;20029;-88
2021/07/29 07:00:53;;;;;;;6.40;2.70;;;18.70;99.90;;;;;;5038707;28;20094;-86
2021/07/29 07:03:19;;;;;;;3.88;2.28;;;18.80;99.90;;;;;;5038890;28;20049;-89
2021/07/29 07:05:45;;;;;;;5.22;2.20;;;19.00;99.90;;;;;;5039432;28;20421;-86
2021/07/29 07:08:14;;;;;;;3.60;2.35;;;19.00;99.90;;;;;;5038237;28;20032;-86
2021/07/29 07:10:40;;;;;;;5.85;2.28;;;19.10;99.90;;;;;;5038558;28;20025;-87
2021/07/29 07:13:06;;;;;;;3.92;2.10;;;19.20;99.90;;;;;;5038923;28;20021;-87
2021/07/29 07:15:32;;;;;;;5.57;2.40;;;19.30;99.90;;;;;;5038232;28;20029;-86
2021/07/29 07:17:58;;;;;;;7.00;2.22;;;19.40;99.90;;;;;;5056092;28;20500;-87
2021/07/29 07:20:24;;;;;;;3.90;2.20;;;19.40;99.90;;;;;;5038720;28;20055;-89
2021/07/29 07:22:51;;;;;;;3.83;2.15;;;19.50;99.90;;;;;;5038319;28;20029;-86
2021/07/29 07:25:17;;;;;;;5.30;2.33;;;19.70;99.90;;;;;;5038239;28;20126;-86
2021/07/29 07:27:43;;;;;;;6.28;2.40;;;19.80;99.90;;;;;;5038235;28;20484;-86
2021/07/29 07:30:09;;;;;;;5.53;2.17;;;19.70;99.90;;;;;;5038960;28;20021;-86
2021/07/29 07:32:35;;;;;;;4.93;2.88;;;19.60;99.90;;;;;;5038271;28;20062;-87
2021/07/29 07:35:02;;;;;;;5.40;2.55;;;19.60;99.90;;;;;;5038334;28;20031;-86
2021/07/29 07:37:27;;;;;;;5.03;2.55;;;19.60;99.90;;;;;;5038115;28;20037;-86
2021/07/29 07:39:53;;;;;;;5.13;2.80;;;19.60;99.90;;;;;;5037760;28;20052;-87
2021/07/29 07:42:19;;;;;;;5.07;2.90;;;19.90;99.90;;;;;;5037845;28;20033;-87
2021/07/29 07:44:44;;;;;;;7.38;2.60;;;20.00;99.90;;;;;;5037967;28;20059;-86
2021/07/29 07:47:10;;;;;;;8.57;2.88;;;20.00;99.90;;;;;;5038008;28;20073;-87
2021/07/29 07:49:38;;;;;;;4.07;2.30;;;20.00;99.90;;;;;;5038530;28;20488;-86
2021/07/29 07:52:08;;;;;;;3.22;2.20;;;19.90;99.90;;;;;;5037718;28;20036;-88
2021/07/29 07:54:34;;;;;;;3.42;2.35;;;19.90;99.90;;;;;;5037792;28;20037;-86
2021/07/29 07:57:00;;;;;;;4.85;2.53;;;19.90;99.90;;;;;;5037556;28;20029;-83
2021/07/29 07:59:26;;;;;;;4.45;2.40;;;20.20;99.90;;;;;;5037575;28;20025;-85
2021/07/29 08:01:51;;;;;;;6.70;2.50;;;20.50;99.90;;;;;;5040168;28;20057;-85
2021/07/29 08:04:17;;;;;;;5.47;2.38;;;20.60;99.90;;;;;;5056418;28;20033;-86
2021/07/29 08:06:43;;;;;;;4.30;2.50;;;20.80;99.90;;;;;;5038163;28;20067;-86
2021/07/29 08:09:08;;;;;;;5.10;2.30;;;20.80;99.90;;;;;;5037098;28;20087;-86
2021/07/29 08:11:34;;;;;;;7.13;2.45;;;20.60;99.90;;;;;;5037567;28;20021;-86
2021/07/29 08:14:00;;;;;;;5.63;2.65;;;20.50;99.90;;;;;;5037023;28;20024;-86
2021/07/29 08:16:26;;;;;;;6.22;2.67;;;20.50;99.90;;;;;;5054953;28;20033;-86
2021/07/29 08:18:53;;;;;;;7.57;2.60;;;20.50;99.90;;;;;;5054819;28;20025;-86
2021/07/29 08:21:19;;;;;;;3.47;2.33;;;20.50;99.90;;;;;;5036963;28;20162;-86
2021/07/29 08:23:45;;;;;;;4.45;2.30;;;20.60;99.90;;;;;;5042302;28;20045;-87
2021/07/29 08:26:11;;;;;;;6.07;2.92;;;20.70;99.90;;;;;;5058245;28;20025;-87
2021/07/29 08:28:42;;;;;;;5.05;2.60;;;20.70;99.90;;;;;;5039485;28;20078;-85
2021/07/29 08:31:13;;;;;;;4.95;2.42;;;20.80;99.90;;;;;;5039058;28;20021;-88
2021/07/29 08:33:40;;;;;;;5.50;2.55;;;20.90;99.90;;;;;;5037135;28;20017;-88
2021/07/29 08:36:18;;;;;;;3.55;2.20;;;21.30;99.90;;;;;;5037879;28;20021;-87
2021/07/29 08:38:45;;;;;;;5.97;2.83;;;21.40;99.90;;;;;;5037721;28;20075;-88
2021/07/29 08:41:14;;;;;;;3.97;2.75;;;21.30;99.90;;;;;;5038063;28;20111;-89
2021/07/29 08:43:40;;;;;;;3.83;2.70;;;21.40;99.90;;;;;;5054499;28;20044;-88
2021/07/29 08:46:09;;;;;;;6.03;2.80;;;21.40;99.90;;;;;;5037850;28;20025;-89
2021/07/29 08:48:38;;;;;;;4.55;2.80;;;21.40;99.90;;;;;;5037764;28;20021;-88
2021/07/29 08:51:03;;;;;;;6.40;2.72;;;21.30;99.90;;;;;;5037329;28;20025;-87
2021/07/29 08:53:29;;;;;;;4.32;2.50;;;21.50;99.90;;;;;;5036957;28;20158;-87
2021/07/29 08:55:56;;;;;;;3.75;2.65;;;21.60;99.90;;;;;;5036867;28;20029;-87
2021/07/29 08:58:22;;;;;;;5.47;2.60;;;21.50;99.90;;;;;;5037091;28;20131;-87
2021/07/29 09:01:08;;;;;;;8.02;2.72;;;21.40;99.90;;;;;;5036970;28;20439;-87
2021/07/29 09:03:34;;;;;;;8.30;3.00;;;21.40;99.90;;;;;;5037407;28;20036;-87
2021/07/29 09:06:02;;;;;;;3.10;2.58;;;21.50;99.90;;;;;;5038008;28;20483;-87
2021/07/29 09:08:40;;;;;;;3.38;2.10;;;21.40;99.90;;;;;;5054774;28;20033;-87
2021/07/29 09:11:23;;;;;;;3.97;2.63;;;21.70;99.90;;;;;;5036715;28;20021;-86
2021/07/29 09:14:01;;;;;;;4.63;2.65;;;22.30;99.90;;;;;;5036859;28;20091;-88
2021/07/29 09:16:27;;;;;;;7.53;3.00;;;22.50;99.90;;;;;;5054865;28;20549;-87
2021/07/29 09:18:52;;;;;;;6.38;2.78;;;22.60;99.90;;;;;;5036833;28;20029;-88
2021/07/29 09:21:18;;;;;;;6.63;2.70;;;22.60;99.90;;;;;;5058327;28;20544;-88
2021/07/29 09:23:44;;;;;;;7.53;2.63;;;22.70;99.90;;;;;;5058716;28;20028;-86
2021/07/29 09:26:09;;;;;;;8.00;2.55;;;22.40;99.90;;;;;;5057809;28;20025;-86
2021/07/29 09:28:40;;;;;;;6.50;2.47;;;22.20;99.90;;;;;;5040451;28;20032;-86
2021/07/29 09:31:19;;;;;;;6.85;2.30;;;21.90;99.90;;;;;;5040753;28;20027;-87
2021/07/29 09:34:14;;;;;;;4.28;2.53;;;21.70;99.90;;;;;;5056691;28;20021;-86
2021/07/29 09:36:40;;;;;;;6.43;2.25;;;21.50;99.90;;;;;;5026935;28;20036;-86
2021/07/29 09:39:24;;;;;;;4.68;2.70;;;21.30;99.90;;;;;;5039996;28;20049;-86
2021/07/29 09:41:53;;;;;;;5.68;2.55;;;21.30;99.90;;;;;;5040018;28;20043;-86
2021/07/29 09:44:39;;;;;;;4.00;2.83;;;21.10;99.90;;;;;;5057987;28;20469;-85
2021/07/29 09:47:05;;;;;;;3.47;2.50;;;21.10;99.90;;;;;;5057339;28;20096;-85
2021/07/29 09:49:31;;;;;;;7.20;3.03;;;21.20;99.90;;;;;;5039403;28;20021;-86
2021/07/29 09:51:59;;;;;;;3.35;2.47;;;21.30;99.90;;;;;;5040058;28;20417;-85
2021/07/29 09:54:25;;;;;;;5.63;2.63;;;21.30;99.90;;;;;;5039657;28;20077;-85
2021/07/29 09:56:51;;;;;;;3.80;2.65;;;21.70;99.90;;;;;;5039343;28;20021;-85
2021/07/29 09:59:17;;;;;;;5.85;3.40;;;22.20;99.90;;;;;;5039144;28;20021;-86
2021/07/29 10:01:43;;;;;;;6.38;2.78;;;22.50;99.90;;;;;;5039053;28;20075;-84
2021/07/29 10:04:09;;;;;;;3.63;2.55;;;22.60;99.90;;;;;;5039669;28;20032;-85
2021/07/29 10:06:37;;;;;;;4.72;2.70;;;22.60;99.90;;;;;;5039201;28;20025;-85
2021/07/29 10:09:13;;;;;;;4.68;3.08;;;22.70;99.90;;;;;;5057105;28;20078;-86
2021/07/29 10:11:45;;;;;;;6.30;2.78;;;23.00;99.90;;;;;;5039307;28;20099;-84
2021/07/29 10:14:11;;;;;;;4.00;2.72;;;23.10;99.90;;;;;;5039387;28;20182;-84
2021/07/29 10:16:43;;;;;;;5.05;2.95;;;23.20;99.90;;;;;;5038930;28;20056;-84
2021/07/29 10:19:08;;;;;;;4.78;2.88;;;23.70;99.90;;;;;;5039576;28;20029;-82
2021/07/29 10:21:36;;;;;;;5.78;3.20;;;24.20;99.90;;;;;;5039351;28;20480;-86
2021/07/29 10:24:06;;;;;;;6.03;3.00;;;23.80;99.90;;;;;;5040099;28;20031;-84
2021/07/29 10:26:34;;;;;;;5.45;2.90;;;23.20;99.90;;;;;;5038746;28;20387;-84
2021/07/29 10:29:18;;;;;;;4.38;2.95;;;22.90;99.90;;;;;;5038678;28;20028;-84
2021/07/29 10:31:55;;;;;;;7.07;2.80;;;23.10;99.90;;;;;;5037264;28;20392;-84
2021/07/29 10:34:32;;;;;;;5.25;3.03;;;23.00;99.90;;;;;;5038330;28;20032;-85
2021/07/29 10:36:59;;;;;;;7.15;3.33;;;23.50;99.90;;;;;;5038581;28;20504;-85
2021/07/29 10:39:26;;;;;;;6.72;3.05;;;24.00;99.90;;;;;;5043120;28;20045;-84
2021/07/29 10:41:59;;;;;;;5.38;3.10;;;24.60;99.90;;;;;;5018519;28;20021;-85
2021/07/29 10:44:31;;;;;;;5.10;2.70;;;24.70;99.90;;;;;;5034947;28;20028;-85
2021/07/29 10:46:57;;;;;;;5.50;3.10;;;24.80;99.90;;;;;;5036320;28;20029;-86
2021/07/29 10:49:23;;;;;;;4.70;3.15;;;25.00;99.90;;;;;;5018507;28;20022;-85
2021/07/29 10:52:08;;;;;;;6.32;2.90;;;24.50;99.90;;;;;;5018783;28;20022;-86
2021/07/29 10:54:45;;;;;;;3.92;2.58;;;24.60;99.90;;;;;;5018524;28;20021;-85
2021/07/29 10:57:12;;;;;;;3.97;2.63;;;24.90;99.90;;;;;;5036009;28;20095;-85
2021/07/29 10:59:38;;;;;;;5.72;2.70;;;24.10;99.90;;;;;;5017550;28;20025;-85
2021/07/29 11:02:13;;;;;;;4.53;2.67;;;24.40;99.90;;;;;;5017547;28;20032;-85
2021/07/29 11:04:58;;;;;;;6.78;3.22;;;24.60;99.90;;;;;;5018248;28;20545;-86
2021/07/29 11:07:25;;;;;;;6.00;2.85;;;24.90;99.90;;;;;;5017323;28;20028;-85
2021/07/29 11:10:10;;;;;;;4.68;2.53;;;25.70;99.90;;;;;;5017313;28;20032;-85
2021/07/29 11:12:39;;;;;;;5.57;2.78;;;26.00;99.90;;;;;;5017524;28;20112;-85
2021/07/29 11:15:08;;;;;;;4.38;2.60;;;25.60;99.90;;;;;;5034972;28;20033;-86
2021/07/29 11:17:34;;;;;;;3.83;2.90;;;26.10;99.90;;;;;;5017161;28;20064;-84
2021/07/29 11:20:00;;;;;;;4.45;2.97;;;26.20;99.90;;;;;;5017159;28;20037;-84
2021/07/29 11:22:26;;;;;;;4.03;2.50;;;26.50;99.90;;;;;;5017319;28;20025;-85
2021/07/29 11:24:51;;;;;;;3.95;2.80;;;25.90;99.90;;;;;;5016879;28;20119;-85
2021/07/29 11:27:30;;;;;;;4.05;2.60;;;25.70;99.90;;;;;;5017018;28;20030;-85
2021/07/29 11:29:59;;;;;;;2.88;2.58;;;25.20;99.90;;;;;;5017015;28;20453;-85
2021/07/29 11:32:39;;;;;;;5.18;2.97;;;25.20;99.90;;;;;;5016906;28;20025;-85
2021/07/29 11:35:10;;;;;;;9.02;3.10;;;24.40;99.90;;;;;;5016961;28;20116;-85
2021/07/29 11:37:38;;;;;;;5.70;3.20;;;24.40;99.90;;;;;;5016923;28;20037;-86
2021/07/29 11:40:06;;;;;;;4.68;2.97;;;24.00;99.90;;;;;;5034938;28;20041;-85
2021/07/29 11:42:33;;;;;;;5.50;2.88;;;24.20;99.90;;;;;;5036312;28;20025;-86
2021/07/29 11:44:59;;;;;;;4.78;2.75;;;24.20;99.90;;;;;;5036511;28;20036;-86
2021/07/29 11:47:36;;;;;;;4.38;2.92;;;24.20;99.90;;;;;;5036560;28;20389;-85
2021/07/29 11:50:03;;;;;;;4.43;2.78;;;24.00;99.90;;;;;;5036893;28;20044;-86
2021/07/29 11:52:29;;;;;;;4.07;3.00;;;25.30;99.90;;;;;;5036380;28;20033;-86
2021/07/29 11:55:12;;;;;;;3.78;2.90;;;26.20;99.90;;;;;;5054394;28;20033;-85
2021/07/29 11:57:38;;;;;;;3.75;2.65;;;26.80;99.90;;;;;;5036458;28;20032;-85
2021/07/29 12:00:05;;;;;;;5.43;3.15;;;27.40;99.90;;;;;;5036285;28;20029;-87
2021/07/29 12:02:31;;;;;;;3.25;2.85;;;27.90;99.90;;;;;;5036200;28;20033;-86
2021/07/29 12:04:56;;;;;;;5.13;2.97;;;27.90;98.70;;;;;;5053951;28;20031;-86
2021/07/29 12:07:22;;;;;;;3.65;2.55;;;27.60;98.50;;;;;;5036234;28;20416;-87
2021/07/29 12:09:49;;;;;;;4.03;2.85;;;27.60;99.10;;;;;;5036281;28;20021;-86
2021/07/29 12:12:16;;;;;;;3.60;2.40;;;27.70;97.90;;;;;;5036147;28;20503;-85
2021/07/29 12:14:46;;;;;;;3.35;2.65;;;28.00;97.80;;;;;;5036003;28;20384;-86
2021/07/29 12:17:22;;;;;;;3.92;2.58;;;28.40;97.20;;;;;;5035970;28;20412;-86
2021/07/29 12:19:58;;;;;;;2.90;2.53;;;28.80;96.40;;;;;;5053909;28;20025;-85
2021/07/29 12:22:26;;;;;;;7.03;2.67;;;28.30;96.60;;;;;;5035926;28;20032;-86
2021/07/29 12:24:51;;;;;;;5.13;2.50;;;28.60;96.70;;;;;;5035992;28;20036;-85
2021/07/29 12:27:19;;;;;;;3.78;2.70;;;28.80;96.30;;;;;;5056369;28;20020;-85
2021/07/29 12:29:46;;;;;;;4.75;2.90;;;28.90;95.80;;;;;;5040816;28;20092;-85
2021/07/29 12:32:25;;;;;;;3.88;2.72;;;28.40;95.90;;;;;;5055185;28;20021;-87
2021/07/29 12:34:53;;;;;;;4.38;2.45;;;28.70;96.20;;;;;;5036050;28;20032;-85
2021/07/29 12:37:36;;;;;;;4.20;2.65;;;28.30;95.00;;;;;;5035801;28;20027;-87
2021/07/29 12:40:24;;;;;;;3.70;2.70;;;28.50;95.60;;;;;;5035461;28;20056;-86
2021/07/29 12:42:50;;;;;;;8.85;2.53;;;28.90;94.80;;;;;;5035842;28;20044;-86
2021/07/29 12:45:16;;;;;;;3.13;2.20;;;29.20;94.70;;;;;;5035562;28;20392;-87
2021/07/29 12:48:02;;;;;;;4.80;2.53;;;29.30;93.70;;;;;;5035596;28;20496;-87
2021/07/29 12:50:38;;;;;;;4.63;2.50;;;29.50;94.70;;;;;;5035677;28;20078;-89